createdAt,value
2019-02-22T00:00:52.009Z,98200.00
2019-02-22T00:03:23.208Z,98199.00
2019-02-22T00:05:54.239Z,98203.00
2019-02-22T00:08:25.446Z,98207.00
2019-02-22T00:10:56.647Z,98214.00
2019-02-22T00:13:27.756Z,98214.00
2019-02-22T00:15:59.310Z,98214.00
2019-02-22T00:18:30.759Z,98223.00
2019-02-22T00:21:02.082Z,98230.00
2019-02-22T00:23:33.200Z,98219.00
2019-02-22T00:26:04.440Z,98225.00
2019-02-22T00:28:36.255Z,98229.00
2019-02-22T00:31:08.824Z,98216.00
2019-02-22T00:33:39.967Z,98219.00
2019-02-22T00:36:11.124Z,98212.00
2019-02-22T00:38:42.472Z,98218.00
2019-02-22T00:41:13.521Z,98218.00
2019-02-22T00:43:44.932Z,98225.00
2019-02-22T00:46:16.303Z,98225.00
2019-02-22T00:48:47.770Z,98225.00
2019-02-22T00:51:18.999Z,98216.00
2019-02-22T00:53:50.208Z,98217.00
2019-02-22T00:56:21.724Z,98232.00
2019-02-22T00:58:53.017Z,98228.00
2019-02-22T01:01:24.147Z,98233.00
2019-02-22T01:03:55.300Z,98230.00
2019-02-22T01:06:26.658Z,98228.00
2019-02-22T01:08:57.800Z,98245.00
2019-02-22T01:11:29.018Z,98237.00
2019-02-22T01:14:02.125Z,98235.00
2019-02-22T01:16:37.596Z,98228.00
2019-02-22T01:19:09.254Z,98236.00
2019-02-22T01:21:40.541Z,98244.00
2019-02-22T01:24:12.151Z,98240.00
2019-02-22T01:26:43.597Z,98242.00
2019-02-22T01:29:14.664Z,98248.00
2019-02-22T01:31:45.790Z,98250.00
2019-02-22T01:34:17.244Z,98241.00
2019-02-22T01:36:48.780Z,98245.00
2019-02-22T01:39:19.925Z,98242.00
2019-02-22T01:41:51.051Z,98248.00
2019-02-22T01:44:23.578Z,98248.00
2019-02-22T01:46:54.845Z,98254.00
2019-02-22T01:49:26.339Z,98257.00
2019-02-22T01:51:57.668Z,98250.00
2019-02-22T01:54:29.155Z,98238.00
2019-02-22T01:57:00.409Z,98254.00
2019-02-22T01:59:31.521Z,98247.00
2019-02-22T02:02:03.078Z,98251.00
2019-02-22T02:04:34.135Z,98260.00
2019-02-22T02:07:05.753Z,98268.00
2019-02-22T02:12:04.947Z,98254.00
2019-02-22T02:14:36.606Z,98253.00
2019-02-22T02:17:08.154Z,98250.00
2019-02-22T02:19:39.304Z,98258.00
2019-02-22T02:22:10.482Z,98244.00
2019-02-22T02:24:42.032Z,98269.00
2019-02-22T02:27:13.204Z,98267.00
2019-02-22T02:29:44.343Z,98260.00
2019-02-22T02:32:15.456Z,98252.00
2019-02-22T02:34:46.660Z,98264.00
2019-02-22T02:37:17.934Z,98266.00
2019-02-22T02:39:49.201Z,98268.00
2019-02-22T02:42:20.722Z,98270.00
2019-02-22T02:44:52.036Z,98264.00
2019-02-22T02:47:23.448Z,98271.00
2019-02-22T02:49:54.567Z,98283.00
2019-02-22T02:52:25.699Z,98275.00
2019-02-22T02:54:57.195Z,98279.00
2019-02-22T02:57:28.671Z,98294.00
2019-02-22T02:59:59.731Z,98281.00
2019-02-22T03:02:31.756Z,98288.00
2019-02-22T03:05:02.957Z,98280.00
2019-02-22T03:07:44.877Z,98289.00
2019-02-22T03:10:16.431Z,98290.00
2019-02-22T03:12:47.539Z,98284.00
2019-02-22T03:15:19.640Z,98291.00
2019-02-22T03:17:50.889Z,98286.00
2019-02-22T03:20:22.094Z,98294.00
2019-02-22T03:22:53.258Z,98286.00
2019-02-22T03:25:24.310Z,98298.00
2019-02-22T03:27:55.771Z,98289.00
2019-02-22T03:30:27.317Z,98291.00
2019-02-22T03:32:58.804Z,98297.00
2019-02-22T03:35:30.534Z,98295.00
2019-02-22T03:38:01.805Z,98306.00
2019-02-22T03:40:34.041Z,98306.00
2019-02-22T03:43:05.296Z,98297.00
2019-02-22T03:45:36.572Z,98303.00
2019-02-22T03:48:08.881Z,98307.00
2019-02-22T03:50:40.589Z,98306.00
2019-02-22T03:53:30.633Z,98319.00
2019-02-22T03:56:01.855Z,98320.00
2019-02-22T03:58:33.106Z,98322.00
2019-02-22T04:01:04.382Z,98328.00
2019-02-22T04:03:35.570Z,98331.00
2019-02-22T04:06:06.710Z,98326.00
2019-02-22T04:08:37.884Z,98335.00
2019-02-22T04:11:09.151Z,98333.00
2019-02-22T04:13:40.669Z,98339.00
2019-02-22T04:16:11.797Z,98346.00
2019-02-22T04:18:43.054Z,98335.00
2019-02-22T04:21:14.196Z,98343.00
2019-02-22T04:23:45.479Z,98344.00
2019-02-22T04:26:16.610Z,98351.00
2019-02-22T04:28:48.176Z,98353.00
2019-02-22T04:31:19.722Z,98358.00
2019-02-22T04:33:51.077Z,98355.00
2019-02-22T04:36:22.531Z,98355.00
2019-02-22T04:38:53.575Z,98354.00
2019-02-22T04:41:24.784Z,98364.00
2019-02-22T04:43:56.236Z,98361.00
2019-02-22T04:46:27.496Z,98364.00
2019-02-22T04:48:58.857Z,98365.00
2019-02-22T04:51:30.122Z,98365.00
2019-02-22T04:54:01.584Z,98371.00
2019-02-22T04:56:33.108Z,98362.00
2019-02-22T04:59:04.587Z,98374.00
2019-02-22T05:01:35.629Z,98370.00
2019-02-22T05:04:06.877Z,98377.00
2019-02-22T05:06:38.082Z,98371.00
2019-02-22T05:09:09.254Z,98377.00
2019-02-22T05:11:40.858Z,98384.00
2019-02-22T05:14:12.450Z,98378.00
2019-02-22T05:16:43.791Z,98382.00
2019-02-22T05:19:14.938Z,98382.00
2019-02-22T05:21:46.251Z,98387.00
2019-02-22T05:24:17.245Z,98393.00
2019-02-22T05:26:48.296Z,98391.00
2019-02-22T05:29:19.954Z,98402.00
2019-02-22T05:31:51.038Z,98401.00
2019-02-22T05:34:22.391Z,98401.00
2019-02-22T05:36:53.561Z,98409.00
2019-02-22T05:39:24.952Z,98401.00
2019-02-22T05:41:56.160Z,98404.00
2019-02-22T05:44:27.181Z,98415.00
2019-02-22T05:47:00.570Z,98415.00
2019-02-22T05:49:31.155Z,98414.00
2019-02-22T05:52:02.571Z,98438.00
2019-02-22T05:54:33.671Z,98426.00
2019-02-22T05:57:04.873Z,98426.00
2019-02-22T05:59:35.972Z,98422.00
2019-02-22T06:02:07.629Z,98435.00
2019-02-22T06:04:38.795Z,98437.00
2019-02-22T06:07:09.993Z,98442.00
2019-02-22T06:09:41.653Z,98448.00
2019-02-22T06:12:12.689Z,98455.00
2019-02-22T06:14:43.714Z,98453.00
2019-02-22T06:17:15.091Z,98463.00
2019-02-22T06:19:46.254Z,98472.00
2019-02-22T06:22:29.059Z,98477.00
2019-02-22T06:24:50.984Z,98476.00
2019-02-22T06:27:22.220Z,98475.00
2019-02-22T06:29:53.716Z,98475.00
2019-02-22T06:32:24.763Z,98489.00
2019-02-22T06:34:55.857Z,98491.00
2019-02-22T06:37:27.044Z,98503.00
2019-02-22T06:39:58.534Z,98510.00
2019-02-22T06:42:30.038Z,98510.00
2019-02-22T06:45:01.136Z,98512.00
2019-02-22T06:47:32.390Z,98518.00
2019-02-22T06:50:03.626Z,98519.00
2019-02-22T06:52:34.678Z,98535.00
2019-02-22T06:55:06.221Z,98541.00
2019-02-22T06:57:37.289Z,98523.00
2019-02-22T07:00:10.010Z,98535.00
2019-02-22T07:02:41.536Z,98549.00
2019-02-22T07:05:12.776Z,98554.00
2019-02-22T07:07:44.219Z,98563.00
2019-02-22T07:10:15.362Z,98553.00
2019-02-22T07:12:57.016Z,98562.00
2019-02-22T07:15:28.589Z,98572.00
2019-02-22T07:17:59.740Z,98565.00
2019-02-22T07:20:30.747Z,98579.00
2019-02-22T07:23:01.803Z,98591.00
2019-02-22T07:25:33.104Z,98586.00
2019-02-22T07:28:05.885Z,98597.00
2019-02-22T07:30:36.981Z,98597.00
2019-02-22T07:33:08.417Z,98596.00
2019-02-22T07:35:39.499Z,98608.00
2019-02-22T07:38:10.618Z,98624.00
2019-02-22T07:40:42.066Z,98618.00
2019-02-22T07:43:13.614Z,98619.00
2019-02-22T07:45:44.631Z,98631.00
2019-02-22T07:48:16.106Z,98637.00
2019-02-22T07:50:56.913Z,98633.00
2019-02-22T07:53:20.124Z,98650.00
2019-02-22T07:55:51.393Z,98651.00
2019-02-22T07:58:22.613Z,98650.00
2019-02-22T08:00:53.795Z,98656.00
2019-02-22T08:03:25.218Z,98657.00
2019-02-22T08:05:57.310Z,98662.00
2019-02-22T08:08:28.694Z,98665.00
2019-02-22T08:10:59.864Z,98670.00
2019-02-22T08:13:31.429Z,98680.00
2019-02-22T08:16:02.874Z,98679.00
2019-02-22T08:18:34.429Z,98681.00
2019-02-22T08:21:06.010Z,98695.00
2019-02-22T08:23:37.058Z,98685.00
2019-02-22T08:26:08.249Z,98690.00
2019-02-22T08:28:39.444Z,98700.00
2019-02-22T08:31:10.711Z,98699.00
2019-02-22T08:33:42.015Z,98695.00
2019-02-22T08:36:13.254Z,98698.00
2019-02-22T08:38:44.302Z,98706.00
2019-02-22T08:41:15.386Z,98711.00
2019-02-22T08:43:46.673Z,98710.00
2019-02-22T08:46:18.015Z,98709.00
2019-02-22T08:48:49.223Z,98718.00
2019-02-22T08:51:20.330Z,98721.00
2019-02-22T08:53:51.395Z,98720.00
2019-02-22T08:56:22.483Z,98734.00
2019-02-22T08:58:53.607Z,98726.00
2019-02-22T09:01:24.703Z,98727.00
2019-02-22T09:03:55.896Z,98731.00
2019-02-22T09:06:27.269Z,98738.00
2019-02-22T09:08:58.818Z,98736.00
2019-02-22T09:11:30.183Z,98737.00
2019-02-22T09:14:01.295Z,98742.00
2019-02-22T09:16:32.525Z,98752.00
2019-02-22T09:19:03.657Z,98746.00
2019-02-22T09:21:35.151Z,98754.00
2019-02-22T09:24:06.422Z,98754.00
2019-02-22T09:26:37.591Z,98772.00
2019-02-22T09:29:09.096Z,98772.00
2019-02-22T09:31:40.127Z,98780.00
2019-02-22T09:34:11.312Z,98778.00
2019-02-22T09:36:42.495Z,98780.00
2019-02-22T09:39:14.066Z,98780.00
2019-02-22T09:41:45.096Z,98778.00
2019-02-22T09:44:16.212Z,98779.00
2019-02-22T09:46:47.946Z,98781.00
2019-02-22T09:49:19.276Z,98781.00
2019-02-22T09:51:50.839Z,98786.00
2019-02-22T09:54:22.033Z,98795.00
2019-02-22T09:56:53.198Z,98799.00
2019-02-22T09:59:24.630Z,98797.00
2019-02-22T10:01:55.882Z,98806.00
2019-02-22T10:04:27.038Z,98804.00
2019-02-22T10:06:59.392Z,98817.00
2019-02-22T10:09:30.658Z,98832.00
2019-02-22T10:12:01.846Z,98825.00
2019-02-22T10:14:32.893Z,98821.00
2019-02-22T10:17:04.150Z,98828.00
2019-02-22T10:19:35.703Z,98832.00
2019-02-22T10:22:07.214Z,98835.00
2019-02-22T10:24:38.403Z,98830.00
2019-02-22T10:27:12.018Z,98840.00
2019-02-22T10:29:42.612Z,98857.00
2019-02-22T10:32:15.917Z,98862.00
2019-02-22T10:34:46.543Z,98868.00
2019-02-22T10:37:17.774Z,98881.00
2019-02-22T10:39:49.020Z,98876.00
2019-02-22T10:42:20.572Z,98873.00
2019-02-22T10:44:52.840Z,98879.00
2019-02-22T10:47:24.079Z,98876.00
2019-02-22T10:49:55.202Z,98885.00
2019-02-22T10:52:26.346Z,98895.00
2019-02-22T10:54:57.527Z,98887.00
2019-02-22T10:57:28.953Z,98891.00
2019-02-22T11:00:00.448Z,98891.00
2019-02-22T11:02:31.544Z,98884.00
2019-02-22T11:05:03.178Z,98899.00
2019-02-22T11:07:37.272Z,98899.00
2019-02-22T11:10:10.259Z,98899.00
2019-02-22T11:12:42.588Z,98919.00
2019-02-22T11:15:14.306Z,98919.00
2019-02-22T11:17:45.466Z,98919.00
2019-02-22T11:20:17.399Z,98920.00
2019-02-22T11:22:48.513Z,98925.00
2019-02-22T11:25:19.739Z,98939.00
2019-02-22T11:27:50.760Z,98931.00
2019-02-22T11:30:21.838Z,98946.00
2019-02-22T11:32:53.465Z,98935.00
2019-02-22T11:35:24.659Z,98940.00
2019-02-22T11:37:56.015Z,98937.00
2019-02-22T11:40:27.123Z,98947.00
2019-02-22T11:42:58.302Z,98960.00
2019-02-22T11:45:29.486Z,98957.00
2019-02-22T11:48:09.203Z,98953.00
2019-02-22T11:50:35.050Z,98962.00
2019-02-22T11:53:06.565Z,98954.00
2019-02-22T11:55:37.680Z,98956.00
2019-02-22T11:58:10.726Z,98956.00
2019-02-22T12:00:42.140Z,98969.00
2019-02-22T12:03:24.295Z,98962.00
2019-02-22T12:05:46.514Z,98970.00
2019-02-22T12:08:17.852Z,98971.00
2019-02-22T12:10:49.184Z,98970.00
2019-02-22T12:13:20.266Z,98974.00
2019-02-22T12:15:51.976Z,98984.00
2019-02-22T12:18:23.058Z,98968.00
2019-02-22T12:20:54.191Z,98988.00
2019-02-22T12:23:25.339Z,98994.00
2019-02-22T12:25:56.363Z,99001.00
2019-02-22T12:28:27.555Z,98998.00
2019-02-22T12:30:58.759Z,99000.00
2019-02-22T12:33:29.817Z,99001.00
2019-02-22T12:36:00.912Z,99019.00
2019-02-22T12:38:32.118Z,99020.00
2019-02-22T12:41:03.131Z,99025.00
2019-02-22T12:43:34.832Z,99020.00
2019-02-22T12:46:05.985Z,99022.00
2019-02-22T12:48:37.252Z,99025.00
2019-02-22T12:51:08.431Z,99032.00
2019-02-22T12:53:39.725Z,99047.00
2019-02-22T12:56:11.605Z,99025.00
2019-02-22T12:58:42.655Z,99049.00
2019-02-22T13:01:13.755Z,99044.00
2019-02-22T13:03:44.880Z,99043.00
2019-02-22T13:06:16.041Z,99043.00
2019-02-22T13:08:48.133Z,99061.00
2019-02-22T13:11:19.235Z,99063.00
2019-02-22T13:13:50.441Z,99069.00
2019-02-22T13:16:21.602Z,99074.00
2019-02-22T13:18:52.748Z,99086.00
2019-02-22T13:21:23.870Z,99075.00
2019-02-22T13:23:57.273Z,99069.00
2019-02-22T13:26:27.824Z,99080.00
2019-02-22T13:28:58.884Z,99086.00
2019-02-22T13:31:30.514Z,99098.00
2019-02-22T13:34:01.671Z,99101.00
2019-02-22T13:36:32.844Z,99096.00
2019-02-22T13:39:05.575Z,99109.00
2019-02-22T13:41:38.442Z,99116.00
2019-02-22T13:44:09.714Z,99113.00
2019-02-22T13:46:41.027Z,99120.00
2019-02-22T13:49:12.321Z,99120.00
2019-02-22T13:51:43.505Z,99133.00
2019-02-22T13:54:15.258Z,99130.00
2019-02-22T13:56:46.566Z,99143.00
2019-02-22T13:59:17.703Z,99148.00
2019-02-22T14:01:48.793Z,99139.00
2019-02-22T14:04:19.870Z,99150.00
2019-02-22T14:06:50.999Z,99154.00
2019-02-22T14:09:22.079Z,99156.00
2019-02-22T14:11:53.332Z,99172.00
2019-02-22T14:14:24.604Z,99171.00
2019-02-22T14:16:55.884Z,99168.00
2019-02-22T14:19:27.035Z,99185.00
2019-02-22T14:21:58.076Z,99180.00
2019-02-22T14:24:29.212Z,99198.00
2019-02-22T14:27:00.339Z,99191.00
2019-02-22T14:29:31.496Z,99183.00
2019-02-22T14:32:02.679Z,99186.00
2019-02-22T14:34:33.880Z,99188.00
2019-02-22T14:37:05.190Z,99194.00
2019-02-22T14:39:38.778Z,99188.00
2019-02-22T14:42:09.521Z,99194.00
2019-02-22T14:44:40.668Z,99196.00
2019-02-22T14:47:11.883Z,99198.00
2019-02-22T14:49:43.088Z,99200.00
2019-02-22T14:52:14.191Z,99208.00
2019-02-22T14:54:45.371Z,99204.00
2019-02-22T14:57:16.563Z,99206.00
2019-02-22T14:59:49.057Z,99218.00
2019-02-22T15:02:20.276Z,99218.00
2019-02-22T15:04:51.562Z,99221.00
2019-02-22T15:07:22.828Z,99230.00
2019-02-22T15:09:53.948Z,99227.00
2019-02-22T15:12:25.146Z,99239.00
2019-02-22T15:14:56.223Z,99231.00
2019-02-22T15:17:48.979Z,99236.00
2019-02-22T15:20:20.249Z,99240.00
2019-02-22T15:22:51.336Z,99250.00
2019-02-22T15:25:22.494Z,99252.00
2019-02-22T15:27:53.664Z,99247.00
2019-02-22T15:30:24.871Z,99251.00
2019-02-22T15:32:56.343Z,99251.00
2019-02-22T15:35:27.721Z,99255.00
2019-02-22T15:37:59.244Z,99255.00
2019-02-22T15:40:30.519Z,99259.00
2019-02-22T15:43:02.853Z,99270.00
2019-02-22T15:45:34.521Z,99271.00
2019-02-22T15:48:05.783Z,99274.00
2019-02-22T15:50:37.017Z,99287.00
2019-02-22T15:53:08.205Z,99295.00
2019-02-22T15:55:39.491Z,99291.00
2019-02-22T15:58:10.689Z,99287.00
2019-02-22T16:00:41.921Z,99295.00
2019-02-22T16:03:13.582Z,99289.00
2019-02-22T16:05:45.776Z,99293.00
2019-02-22T16:08:16.950Z,99308.00
2019-02-22T16:10:48.096Z,99307.00
2019-02-22T16:13:19.332Z,99320.00
2019-02-22T16:15:50.557Z,99320.00
2019-02-22T16:18:21.676Z,99322.00
2019-02-22T16:20:54.093Z,99327.00
2019-02-22T16:23:25.154Z,99329.00
2019-02-22T16:25:56.688Z,99315.00
2019-02-22T16:28:28.280Z,99322.00
2019-02-22T16:30:59.600Z,99322.00
2019-02-22T16:33:30.690Z,99327.00
2019-02-22T16:36:01.762Z,99324.00
2019-02-22T16:38:33.055Z,99333.00
2019-02-22T16:41:04.262Z,99331.00
2019-02-22T16:43:35.285Z,99337.00
2019-02-22T16:46:06.871Z,99345.00
2019-02-22T16:48:38.345Z,99336.00
2019-02-22T16:51:09.415Z,99334.00
2019-02-22T16:53:40.503Z,99345.00
2019-02-22T16:56:11.762Z,99347.00
2019-02-22T16:58:43.079Z,99350.00
2019-02-22T17:01:14.420Z,99349.00
2019-02-22T17:03:45.586Z,99349.00
2019-02-22T17:06:17.130Z,99346.00
2019-02-22T17:08:48.365Z,99347.00
2019-02-22T17:11:19.576Z,99341.00
2019-02-22T17:13:51.117Z,99338.00
2019-02-22T17:16:22.172Z,99342.00
2019-02-22T17:18:53.205Z,99350.00
2019-02-22T17:21:24.261Z,99351.00
2019-02-22T17:23:55.316Z,99348.00
2019-02-22T17:26:26.678Z,99352.00
2019-02-22T17:28:58.264Z,99358.00
2019-02-22T17:31:29.404Z,99370.00
2019-02-22T17:34:00.595Z,99372.00
2019-02-22T17:36:33.022Z,99363.00
2019-02-22T17:39:05.600Z,99363.00
2019-02-22T17:41:38.761Z,99368.00
2019-02-22T17:44:10.028Z,99377.00
2019-02-22T17:46:41.245Z,99375.00
2019-02-22T17:49:12.355Z,99372.00
2019-02-22T17:51:43.554Z,99369.00
2019-02-22T17:54:16.621Z,99374.00
2019-02-22T17:56:47.699Z,99379.00
2019-02-22T17:59:18.782Z,99382.00
2019-02-22T18:01:50.358Z,99389.00
2019-02-22T18:04:21.421Z,99393.00
2019-02-22T18:06:52.656Z,99387.00
2019-02-22T18:09:23.820Z,99394.00
2019-02-22T18:11:54.897Z,99381.00
2019-02-22T18:14:25.936Z,99396.00
2019-02-22T18:17:07.754Z,99399.00
2019-02-22T18:19:31.932Z,99408.00
2019-02-22T18:22:03.109Z,99416.00
2019-02-22T18:24:34.637Z,99421.00
2019-02-22T18:27:05.914Z,99416.00
2019-02-22T18:29:37.395Z,99421.00
2019-02-22T18:32:08.780Z,99409.00
2019-02-22T18:34:39.956Z,99414.00
2019-02-22T18:37:11.499Z,99406.00
2019-02-22T18:39:42.929Z,99400.00
2019-02-22T18:42:14.481Z,99401.00
2019-02-22T18:44:45.760Z,99391.00
2019-02-22T18:47:19.676Z,99394.00
2019-02-22T18:49:49.965Z,99416.00
2019-02-22T18:52:21.551Z,99405.00
2019-02-22T18:54:52.723Z,99420.00
2019-02-22T18:57:24.208Z,99421.00
2019-02-22T18:59:55.581Z,99421.00
2019-02-22T19:02:27.203Z,99432.00
2019-02-22T19:04:58.379Z,99436.00
2019-02-22T19:07:29.449Z,99449.00
2019-02-22T19:10:00.772Z,99447.00
2019-02-22T19:12:32.604Z,99449.00
2019-02-22T19:15:04.252Z,99450.00
2019-02-22T19:17:35.400Z,99451.00
2019-02-22T19:20:08.530Z,99458.00
2019-02-22T19:22:40.068Z,99450.00
2019-02-22T19:25:11.692Z,99465.00
2019-02-22T19:27:42.889Z,99462.00
2019-02-22T19:30:16.243Z,99471.00
2019-02-22T19:32:48.083Z,99476.00
2019-02-22T19:35:20.196Z,99465.00
2019-02-22T19:37:51.505Z,99478.00
2019-02-22T19:40:23.124Z,99473.00
2019-02-22T19:42:54.312Z,99481.00
2019-02-22T19:45:25.575Z,99490.00
2019-02-22T19:47:56.969Z,99481.00
2019-02-22T19:50:28.444Z,99501.00
2019-02-22T19:53:00.202Z,99490.00
2019-02-22T19:55:31.288Z,99491.00
2019-02-22T19:58:02.365Z,99494.00
2019-02-22T20:00:33.615Z,99496.00
2019-02-22T20:03:04.880Z,99491.00
2019-02-22T20:05:35.977Z,99491.00
2019-02-22T20:08:07.240Z,99493.00
2019-02-22T20:10:38.407Z,99492.00
2019-02-22T20:13:09.517Z,99477.00
2019-02-22T20:15:40.928Z,99478.00
2019-02-22T20:18:12.005Z,99492.00
2019-02-22T20:20:43.021Z,99484.00
2019-02-22T20:23:14.627Z,99498.00
2019-02-22T20:25:45.644Z,99501.00
2019-02-22T20:28:16.780Z,99497.00
2019-02-22T20:30:47.877Z,99505.00
2019-02-22T20:33:19.034Z,99509.00
2019-02-22T20:35:50.097Z,99501.00
2019-02-22T20:38:21.335Z,99523.00
2019-02-22T20:40:52.495Z,99524.00
2019-02-22T20:43:23.591Z,99521.00
2019-02-22T20:45:54.668Z,99518.00
2019-02-22T20:48:26.166Z,99516.00
2019-02-22T20:50:57.461Z,99521.00
2019-02-22T20:53:28.959Z,99511.00
2019-02-22T20:56:00.064Z,99509.00
2019-02-22T20:58:31.251Z,99515.00
2019-02-22T21:01:02.421Z,99526.00
2019-02-22T21:03:33.488Z,99531.00
2019-02-22T21:06:04.745Z,99519.00
2019-02-22T21:08:35.869Z,99517.00
2019-02-22T21:11:06.966Z,99523.00
2019-02-22T21:13:38.044Z,99540.00
2019-02-22T21:16:09.336Z,99536.00
2019-02-22T21:18:40.497Z,99534.00
2019-02-22T21:21:11.796Z,99533.00
2019-02-22T21:23:43.260Z,99545.00
2019-02-22T21:26:14.421Z,99545.00
2019-02-22T21:28:46.445Z,99561.00
2019-02-22T21:31:17.616Z,99552.00
2019-02-22T21:33:48.821Z,99562.00
2019-02-22T21:36:20.300Z,99561.00
2019-02-22T21:38:51.512Z,99570.00
2019-02-22T21:41:22.608Z,99567.00
2019-02-22T21:43:54.275Z,99566.00
2019-02-22T21:46:25.284Z,99564.00
2019-02-22T21:48:56.780Z,99571.00
2019-02-22T21:51:28.524Z,99577.00
2019-02-22T21:54:00.617Z,99575.00
2019-02-22T21:56:32.039Z,99566.00
2019-02-22T21:59:03.256Z,99569.00
2019-02-22T22:01:34.392Z,99549.00
2019-02-22T22:04:05.676Z,99547.00
2019-02-22T22:06:36.867Z,99544.00
2019-02-22T22:09:08.297Z,99536.00
2019-02-22T22:11:41.353Z,99540.00
2019-02-22T22:14:13.715Z,99544.00
2019-02-22T22:16:44.732Z,99546.00
2019-02-22T22:19:16.216Z,99543.00
2019-02-22T22:21:47.307Z,99542.00
2019-02-22T22:24:18.357Z,99539.00
2019-02-22T22:26:49.516Z,99527.00
2019-02-22T22:29:20.758Z,99539.00
2019-02-22T22:31:51.781Z,99545.00
2019-02-22T22:34:22.901Z,99549.00
2019-02-22T22:36:54.415Z,99548.00
2019-02-22T22:39:25.475Z,99555.00
2019-02-22T22:41:56.940Z,99553.00
2019-02-22T22:44:27.977Z,99560.00
2019-02-22T22:46:59.638Z,99578.00
2019-02-22T22:49:30.696Z,99567.00
2019-02-22T22:52:02.144Z,99571.00
2019-02-22T22:54:33.193Z,99574.00
2019-02-22T22:57:04.600Z,99578.00
2019-02-22T22:59:35.729Z,99583.00
2019-02-22T23:02:07.047Z,99579.00
2019-02-22T23:04:38.232Z,99578.00
2019-02-22T23:07:09.574Z,99578.00
2019-02-22T23:09:41.531Z,99588.00
2019-02-22T23:12:12.731Z,99577.00
2019-02-22T23:14:43.845Z,99609.00
2019-02-22T23:17:15.085Z,99587.00
2019-02-22T23:19:46.504Z,99585.00
2019-02-22T23:22:17.598Z,99604.00
2019-02-22T23:24:49.040Z,99576.00
2019-02-22T23:27:20.056Z,99592.00
2019-02-22T23:29:51.239Z,99586.00
2019-02-22T23:32:22.533Z,99591.00
2019-02-22T23:34:53.743Z,99597.00
2019-02-22T23:37:24.918Z,99599.00
2019-02-22T23:39:56.274Z,99603.00
2019-02-22T23:42:27.431Z,99603.00
2019-02-22T23:44:58.616Z,99600.00
2019-02-22T23:47:29.891Z,99603.00
2019-02-22T23:50:00.983Z,99603.00
2019-02-22T23:52:33.927Z,99599.00
2019-02-22T23:55:06.788Z,99599.00
2019-02-22T23:57:37.916Z,99608.00
